Billinghay, United Kingdom
Current Conditions -  °F | °C
As of 9:50 AM on Tuesday 27 Jan 2015 (Local Time) from EGXC Reporting Station
Broken Clouds Broken Clouds  
Wind Chill: 37°   Ceiling: 6000
Heat Index: 43°   Visibility: 6mi
Dew Point: 39°   Wind: 9mph
Humidity: 87%   Direction: 270°W
Pressure: 30.27"   Gusts: NA
Location:  53.08°N, 0.28°W
Report Text: EGXC 270950Z 27008KT 9999 FEW020 BKN060 BKN100 06/04 Q1025 BLU NOSIG
Loading
Personal Weather Stations






























Interactive Weather Map New forecast layout! Learn more

10-Day Weather Forecast

Advertisements
Track Severe Weather on mobile